createdAt,value
2019-05-13T00:00:14.647Z,89.90
2019-05-13T00:02:43.759Z,90.40
2019-05-13T00:05:14.408Z,90.80
2019-05-13T00:07:43.936Z,90.30
2019-05-13T00:10:14.533Z,90.50
2019-05-13T00:12:44.476Z,90.50
2019-05-13T00:15:13.956Z,90.50
2019-05-13T00:17:44.329Z,90.80
2019-05-13T00:20:13.843Z,90.90
2019-05-13T00:22:44.351Z,90.60
2019-05-13T00:25:14.270Z,90.80
2019-05-13T00:27:43.753Z,91.00
2019-05-13T00:30:14.223Z,91.10
2019-05-13T00:32:44.324Z,91.20
2019-05-13T00:35:13.923Z,91.00
2019-05-13T00:37:44.036Z,90.60
2019-05-13T00:40:14.116Z,90.80
2019-05-13T00:42:43.833Z,91.00
2019-05-13T00:45:14.261Z,91.00
2019-05-13T00:47:43.539Z,91.10
2019-05-13T00:50:13.910Z,90.90
2019-05-13T00:52:41.411Z,90.70
2019-05-13T00:55:10.062Z,90.50
2019-05-13T00:57:38.629Z,90.70
2019-05-13T01:00:07.317Z,90.70
2019-05-13T01:02:35.527Z,90.90
2019-05-13T01:05:05.183Z,90.60
2019-05-13T01:07:34.155Z,90.50
2019-05-13T01:10:04.245Z,90.70
2019-05-13T01:12:34.496Z,90.80
2019-05-13T01:15:04.124Z,90.60
2019-05-13T01:17:34.038Z,90.80
2019-05-13T01:20:04.143Z,90.60
2019-05-13T01:22:34.390Z,90.90
2019-05-13T01:25:03.951Z,91.30
2019-05-13T01:27:33.397Z,91.20
2019-05-13T01:30:03.946Z,91.30
2019-05-13T01:32:34.200Z,91.20
2019-05-13T01:35:04.431Z,91.40
2019-05-13T01:37:39.935Z,91.40
2019-05-13T01:40:01.500Z,91.30
2019-05-13T01:42:29.762Z,91.20
2019-05-13T01:44:57.990Z,91.20
2019-05-13T01:47:26.234Z,91.40
2019-05-13T01:49:54.444Z,91.40
2019-05-13T01:52:23.777Z,91.50
2019-05-13T01:54:54.313Z,91.50
2019-05-13T01:57:23.809Z,91.80
2019-05-13T01:59:53.824Z,91.90
2019-05-13T02:02:24.217Z,92.30
2019-05-13T02:04:53.265Z,92.20
2019-05-13T02:07:21.497Z,92.40
2019-05-13T02:09:49.712Z,92.90
2019-05-13T02:12:17.936Z,92.90
2019-05-13T02:14:46.167Z,92.80
2019-05-13T02:17:14.711Z,93.00
2019-05-13T02:19:44.226Z,92.90
2019-05-13T02:22:14.555Z,93.30
2019-05-13T02:24:44.672Z,93.40
2019-05-13T02:27:14.213Z,93.40
2019-05-13T02:29:43.654Z,93.40
2019-05-13T02:32:13.645Z,94.10
2019-05-13T02:34:43.658Z,94.00
2019-05-13T02:37:12.826Z,93.90
2019-05-13T02:39:42.718Z,94.30
2019-05-13T02:42:13.297Z,94.10
2019-05-13T02:44:43.735Z,94.00
2019-05-13T02:47:12.366Z,94.50
2019-05-13T02:49:43.058Z,94.40
2019-05-13T02:52:13.273Z,94.30
2019-05-13T02:54:42.691Z,94.20
2019-05-13T02:57:12.391Z,94.30
2019-05-13T02:59:42.307Z,94.50
2019-05-13T03:02:12.395Z,94.80
2019-05-13T03:04:43.352Z,94.70
2019-05-13T03:07:11.983Z,94.90
2019-05-13T03:09:42.318Z,94.80
2019-05-13T03:12:13.106Z,95.30
2019-05-13T03:14:45.134Z,95.40
2019-05-13T03:17:13.034Z,95.70
2019-05-13T03:19:43.259Z,96.00
2019-05-13T03:22:13.484Z,96.00
2019-05-13T03:24:42.946Z,96.40
2019-05-13T03:27:12.808Z,96.70
2019-05-13T03:29:43.279Z,97.30
2019-05-13T03:32:16.186Z,97.80
2019-05-13T03:34:45.243Z,97.90
2019-05-13T03:37:15.715Z,98.10
2019-05-13T03:39:43.566Z,98.10
2019-05-13T03:42:13.709Z,97.70
2019-05-13T03:44:43.722Z,97.80
2019-05-13T03:47:12.849Z,97.70
2019-05-13T03:49:43.631Z,97.90
2019-05-13T03:52:13.518Z,98.20
2019-05-13T03:54:43.580Z,97.60
2019-05-13T03:57:12.638Z,97.40
2019-05-13T03:59:43.642Z,97.50
2019-05-13T04:02:13.007Z,97.40
2019-05-13T04:04:42.390Z,97.40
2019-05-13T04:07:12.959Z,97.30
2019-05-13T04:09:42.521Z,97.30
2019-05-13T04:12:13.548Z,97.30
2019-05-13T04:14:42.405Z,97.70
2019-05-13T04:17:12.545Z,97.90
2019-05-13T04:19:42.355Z,98.10
2019-05-13T04:22:12.885Z,97.90
2019-05-13T04:24:42.645Z,98.00
2019-05-13T04:27:13.234Z,98.40
2019-05-13T04:29:42.796Z,98.10
2019-05-13T04:32:12.844Z,98.00
2019-05-13T04:34:42.473Z,98.00
2019-05-13T04:37:12.951Z,98.00
2019-05-13T04:39:49.999Z,97.80
2019-05-13T04:42:12.397Z,97.80
2019-05-13T04:44:42.804Z,97.70
2019-05-13T04:47:12.790Z,97.50
2019-05-13T04:49:42.885Z,98.50
2019-05-13T04:52:13.428Z,97.50
2019-05-13T04:54:43.582Z,97.30
2019-05-13T04:57:12.378Z,96.60
2019-05-13T04:59:44.565Z,96.10
2019-05-13T05:02:22.305Z,96.10
2019-05-13T05:05:05.824Z,96.10
2019-05-13T05:07:42.026Z,95.50
2019-05-13T05:10:33.773Z,95.60
2019-05-13T05:13:27.110Z,95.30
2019-05-13T05:16:04.473Z,94.90
2019-05-13T05:18:47.962Z,94.50
2019-05-13T05:21:32.172Z,94.30
2019-05-13T05:24:18.790Z,94.10
2019-05-13T05:26:55.857Z,93.60
2019-05-13T05:30:02.069Z,93.60
2019-05-13T05:32:42.632Z,93.60
2019-05-13T05:35:14.113Z,93.00
2019-05-13T05:38:11.971Z,92.30
2019-05-13T05:40:39.623Z,92.20
2019-05-13T05:43:07.846Z,91.60
2019-05-13T05:45:37.113Z,91.90
2019-05-13T05:48:06.465Z,91.70
2019-05-13T05:50:36.434Z,91.50
2019-05-13T05:53:05.385Z,91.60
2019-05-13T05:55:35.040Z,91.20
2019-05-13T05:58:04.632Z,91.20
2019-05-13T06:00:32.837Z,91.00
2019-05-13T06:03:02.494Z,90.30
2019-05-13T06:05:31.864Z,90.30
2019-05-13T06:08:01.943Z,90.40
2019-05-13T06:10:44.132Z,89.30
2019-05-13T06:13:01.845Z,88.00
2019-05-13T06:15:31.459Z,88.50
2019-05-13T06:18:02.202Z,86.10
2019-05-13T06:20:31.647Z,85.10
2019-05-13T06:23:02.061Z,86.60
2019-05-13T06:25:33.335Z,84.00
2019-05-13T06:28:01.697Z,86.00
2019-05-13T06:30:32.404Z,81.60
2019-05-13T06:33:01.455Z,83.30
2019-05-13T06:35:29.417Z,82.70
2019-05-13T06:37:57.625Z,81.40
2019-05-13T06:40:25.833Z,81.80
2019-05-13T06:42:54.057Z,82.10
2019-05-13T06:45:22.271Z,79.20
2019-05-13T06:47:52.149Z,76.50
2019-05-13T06:50:21.967Z,73.90
2019-05-13T06:52:51.355Z,70.10
2019-05-13T06:55:21.262Z,67.40
2019-05-13T06:57:51.675Z,64.10
2019-05-13T07:00:21.620Z,60.20
2019-05-13T07:02:51.752Z,58.80
2019-05-13T07:05:19.610Z,57.40
2019-05-13T07:07:47.832Z,58.00
2019-05-13T07:10:16.053Z,55.20
2019-05-13T07:12:44.264Z,54.60
2019-05-13T07:15:12.485Z,51.30
2019-05-13T07:17:41.650Z,49.80
2019-05-13T07:20:11.609Z,50.50
2019-05-13T07:22:42.103Z,50.50
2019-05-13T07:25:11.410Z,51.50
2019-05-13T07:27:42.197Z,46.40
2019-05-13T07:30:11.315Z,49.00
2019-05-13T07:32:42.049Z,52.10
2019-05-13T07:35:14.092Z,49.70
2019-05-13T07:37:42.222Z,47.60
2019-05-13T07:40:11.612Z,46.80
2019-05-13T07:42:41.910Z,46.20
2019-05-13T07:45:12.159Z,44.90
2019-05-13T07:47:41.741Z,41.10
2019-05-13T07:50:12.490Z,39.90
2019-05-13T07:52:42.083Z,39.20
2019-05-13T07:55:12.014Z,41.70
2019-05-13T07:57:42.085Z,39.50
2019-05-13T08:00:12.222Z,41.40
2019-05-13T08:02:41.759Z,42.40
2019-05-13T08:05:11.838Z,37.90
2019-05-13T08:07:42.039Z,38.30
2019-05-13T08:10:11.556Z,40.70
2019-05-13T08:12:41.304Z,38.80
2019-05-13T08:15:11.958Z,38.20
2019-05-13T08:17:44.691Z,40.20
2019-05-13T08:20:09.530Z,35.40
2019-05-13T08:22:37.738Z,36.10
2019-05-13T08:25:06.044Z,32.00
2019-05-13T08:27:35.182Z,32.30
2019-05-13T08:30:05.757Z,33.90
2019-05-13T08:32:33.982Z,34.70
2019-05-13T08:35:08.676Z,33.20
2019-05-13T08:37:32.263Z,34.20
2019-05-13T08:40:01.519Z,36.50
2019-05-13T08:42:32.143Z,34.90
2019-05-13T08:45:01.927Z,33.20
2019-05-13T08:47:31.404Z,33.20
2019-05-13T08:50:03.860Z,31.40
2019-05-13T08:52:31.418Z,32.80
2019-05-13T08:55:01.442Z,32.60
2019-05-13T08:57:31.590Z,30.40
2019-05-13T09:00:04.049Z,31.30
2019-05-13T09:02:31.373Z,32.50
2019-05-13T09:05:02.240Z,33.10
2019-05-13T09:07:31.862Z,28.20
2019-05-13T09:10:01.619Z,27.60
2019-05-13T09:12:35.133Z,26.80
2019-05-13T09:14:58.557Z,25.90
2019-05-13T09:17:26.831Z,26.50
2019-05-13T09:19:55.109Z,26.70
2019-05-13T09:22:23.324Z,27.70
2019-05-13T09:24:53.073Z,27.80
2019-05-13T09:27:22.581Z,28.50
2019-05-13T09:29:51.831Z,27.70
2019-05-13T09:32:21.477Z,27.80
2019-05-13T09:34:52.423Z,26.00
2019-05-13T09:37:22.245Z,27.20
2019-05-13T09:39:51.712Z,25.60
2019-05-13T09:42:21.646Z,28.00
2019-05-13T09:44:52.292Z,26.70
2019-05-13T09:47:21.667Z,27.70
2019-05-13T09:49:49.695Z,24.30
2019-05-13T09:52:17.906Z,27.10
2019-05-13T09:54:46.131Z,24.40
2019-05-13T09:57:14.348Z,25.10
2019-05-13T09:59:42.558Z,27.10
2019-05-13T10:02:12.502Z,26.50
2019-05-13T10:04:43.377Z,25.90
2019-05-13T10:07:12.402Z,25.10
2019-05-13T10:09:39.234Z,23.50
2019-05-13T10:12:07.471Z,24.20
2019-05-13T10:14:35.682Z,22.80
2019-05-13T10:17:06.477Z,24.50
2019-05-13T10:19:33.849Z,24.30
2019-05-13T10:22:02.078Z,23.60
2019-05-13T10:24:32.745Z,23.90
2019-05-13T10:27:01.923Z,23.10
2019-05-13T10:29:31.659Z,22.30
2019-05-13T10:31:58.741Z,21.60
2019-05-13T10:34:26.973Z,21.90
2019-05-13T10:36:55.182Z,24.00
2019-05-13T10:39:23.419Z,20.60
2019-05-13T10:41:52.290Z,22.60
2019-05-13T10:44:20.915Z,23.20
2019-05-13T10:46:51.993Z,22.40
2019-05-13T10:49:18.397Z,20.70
2019-05-13T10:51:46.890Z,20.40
2019-05-13T10:54:15.116Z,23.10
2019-05-13T10:56:43.408Z,21.80
2019-05-13T10:59:12.628Z,22.10
2019-05-13T11:01:42.614Z,21.10
2019-05-13T11:04:13.482Z,21.80
2019-05-13T11:06:41.595Z,21.90
2019-05-13T11:09:13.053Z,20.70
2019-05-13T11:11:41.533Z,20.00
2019-05-13T11:14:14.513Z,19.90
2019-05-13T11:16:39.158Z,21.10
2019-05-13T11:19:07.387Z,22.30
2019-05-13T11:21:35.606Z,22.70
2019-05-13T11:24:04.085Z,22.70
2019-05-13T11:26:36.191Z,22.80
2019-05-13T11:29:02.755Z,22.10
2019-05-13T11:31:32.765Z,20.40
2019-05-13T11:34:02.045Z,20.90
2019-05-13T11:36:33.244Z,19.70
2019-05-13T11:39:02.410Z,17.70
2019-05-13T11:41:32.744Z,19.30
2019-05-13T11:44:12.966Z,20.20
2019-05-13T11:46:33.255Z,21.10
2019-05-13T11:49:02.521Z,21.10
2019-05-13T11:51:31.949Z,22.20
2019-05-13T11:54:02.394Z,23.70
2019-05-13T11:56:33.750Z,23.90
2019-05-13T11:59:04.079Z,23.00
2019-05-13T12:01:33.464Z,24.00
2019-05-13T12:04:02.766Z,23.90
2019-05-13T12:06:33.837Z,20.00
2019-05-13T12:09:03.092Z,21.60
2019-05-13T12:11:33.122Z,22.70
2019-05-13T12:14:00.234Z,21.30
2019-05-13T12:16:28.466Z,22.60
2019-05-13T12:18:56.705Z,21.00
2019-05-13T12:21:24.914Z,20.10
2019-05-13T12:23:53.422Z,20.10
2019-05-13T12:26:23.814Z,21.20
2019-05-13T12:28:53.584Z,21.80
2019-05-13T12:31:22.429Z,22.50
2019-05-13T12:33:52.315Z,23.30
2019-05-13T12:36:23.573Z,23.60
2019-05-13T12:41:23.118Z,24.60
2019-05-13T12:43:54.003Z,27.30
2019-05-13T12:46:24.062Z,24.30
2019-05-13T12:48:50.517Z,21.20
2019-05-13T12:51:18.738Z,22.90
2019-05-13T12:53:47.321Z,25.20
2019-05-13T12:56:15.549Z,23.70
2019-05-13T12:58:43.758Z,22.20
2019-05-13T13:01:12.797Z,22.40
2019-05-13T13:03:41.268Z,22.70
2019-05-13T13:06:27.130Z,24.90
2019-05-13T13:08:47.493Z,22.90
2019-05-13T13:11:09.674Z,24.50
2019-05-13T13:13:59.038Z,25.20
2019-05-13T13:16:08.129Z,24.10
2019-05-13T13:18:36.517Z,24.20
2019-05-13T13:21:07.453Z,24.90
2019-05-13T13:23:34.676Z,25.00
2019-05-13T13:26:03.467Z,25.60
2019-05-13T13:28:34.256Z,24.60
2019-05-13T13:31:04.221Z,24.80
2019-05-13T13:33:34.295Z,24.70
2019-05-13T13:36:05.231Z,24.80
2019-05-13T13:38:32.727Z,23.30
2019-05-13T13:41:03.947Z,24.50
2019-05-13T13:43:37.111Z,25.30
2019-05-13T13:46:08.649Z,22.40
2019-05-13T13:48:33.316Z,23.10
2019-05-13T13:51:04.018Z,21.20
2019-05-13T13:53:33.310Z,22.60
2019-05-13T13:56:02.195Z,23.60
2019-05-13T13:58:32.613Z,23.70
2019-05-13T14:01:10.502Z,23.10
2019-05-13T14:03:34.113Z,22.90
2019-05-13T14:06:06.354Z,23.40
2019-05-13T14:06:33.066Z,24.10
2019-05-13T14:08:30.570Z,23.60
2019-05-13T14:10:58.782Z,22.70
2019-05-13T14:13:27.001Z,23.00
2019-05-13T14:15:55.234Z,24.60
2019-05-13T14:18:26.627Z,23.50
2019-05-13T14:20:53.412Z,22.20
2019-05-13T14:23:21.648Z,22.40
2019-05-13T14:25:52.109Z,22.50
2019-05-13T14:28:22.593Z,21.50
2019-05-13T14:30:51.449Z,21.30
2019-05-13T14:33:19.697Z,24.30
2019-05-13T14:35:47.937Z,20.70
2019-05-13T14:38:16.159Z,21.00
2019-05-13T14:40:44.925Z,21.70
2019-05-13T14:43:13.541Z,22.30
2019-05-13T14:45:41.749Z,21.80
2019-05-13T14:48:12.440Z,20.00
2019-05-13T14:50:41.636Z,21.80
2019-05-13T14:53:09.863Z,22.80
2019-05-13T14:55:38.124Z,24.60
2019-05-13T14:58:06.589Z,24.00
2019-05-13T15:00:34.815Z,22.30
2019-05-13T15:03:03.190Z,22.40
2019-05-13T15:05:31.531Z,23.00
2019-05-13T15:07:59.737Z,21.20
2019-05-13T15:10:27.962Z,22.20
2019-05-13T15:12:56.470Z,24.00
2019-05-13T15:15:24.694Z,22.80
2019-05-13T15:17:52.947Z,23.40
2019-05-13T15:20:21.833Z,21.50
2019-05-13T15:22:51.885Z,21.70
2019-05-13T15:25:22.109Z,23.00
2019-05-13T15:27:52.814Z,24.60
2019-05-13T15:30:21.780Z,25.10
2019-05-13T15:32:52.587Z,24.50
2019-05-13T15:35:20.288Z,22.70
2019-05-13T15:37:48.603Z,24.50
2019-05-13T15:40:16.821Z,24.50
2019-05-13T15:42:45.417Z,24.50
2019-05-13T15:45:13.655Z,24.40
2019-05-13T15:47:41.902Z,22.80
2019-05-13T15:50:12.438Z,24.10
2019-05-13T15:52:42.955Z,22.50
2019-05-13T15:55:12.024Z,21.20
2019-05-13T15:57:42.566Z,21.00
2019-05-13T16:00:12.334Z,21.70
2019-05-13T16:02:41.983Z,21.80
2019-05-13T16:05:11.989Z,22.60
2019-05-13T16:07:41.781Z,24.10
2019-05-13T16:10:11.342Z,24.30
2019-05-13T16:12:39.768Z,25.20
2019-05-13T16:15:08.466Z,24.60
2019-05-13T16:17:41.030Z,24.80
2019-05-13T16:20:06.798Z,26.60
2019-05-13T16:22:35.015Z,26.80
2019-05-13T16:25:04.982Z,26.80
2019-05-13T16:27:33.193Z,26.60
2019-05-13T16:30:02.427Z,27.70
2019-05-13T16:32:31.921Z,29.10
2019-05-13T16:35:02.728Z,30.20
2019-05-13T16:37:31.424Z,30.00
2019-05-13T16:39:59.837Z,30.40
2019-05-13T16:42:28.068Z,31.60
2019-05-13T16:44:56.351Z,32.30
2019-05-13T16:47:24.580Z,31.20
2019-05-13T16:49:53.411Z,33.00
2019-05-13T16:52:22.097Z,32.70
2019-05-13T16:54:52.786Z,33.60
2019-05-13T16:57:20.361Z,34.60
2019-05-13T16:59:48.859Z,33.60
2019-05-13T17:02:17.065Z,35.00
2019-05-13T17:04:45.293Z,36.10
2019-05-13T17:07:13.543Z,35.40
2019-05-13T17:09:41.804Z,34.50
2019-05-13T17:12:13.874Z,35.30
2019-05-13T17:14:41.815Z,36.00
2019-05-13T17:17:11.866Z,36.20
2019-05-13T17:19:42.363Z,35.50
2019-05-13T17:22:11.336Z,36.60
2019-05-13T17:24:42.464Z,36.60
2019-05-13T17:27:11.939Z,36.20
2019-05-13T17:29:39.468Z,36.00
2019-05-13T17:32:07.686Z,37.40
2019-05-13T17:34:35.908Z,36.30
2019-05-13T17:37:04.177Z,37.80
2019-05-13T17:39:32.398Z,37.60
2019-05-13T17:42:01.454Z,38.30
2019-05-13T17:44:31.810Z,37.20
2019-05-13T17:47:01.644Z,37.50
2019-05-13T17:49:31.782Z,37.80
2019-05-13T17:52:02.131Z,38.70
2019-05-13T17:54:31.804Z,39.10
2019-05-13T17:57:01.865Z,39.60
2019-05-13T17:59:31.496Z,40.00
2019-05-13T18:02:02.287Z,40.30
2019-05-13T18:04:31.466Z,40.90
2019-05-13T18:07:01.593Z,41.30
2019-05-13T18:09:31.864Z,41.00
2019-05-13T18:12:02.145Z,41.00
2019-05-13T18:14:29.881Z,42.20
2019-05-13T18:16:58.109Z,42.70
2019-05-13T18:19:26.323Z,42.90
2019-05-13T18:21:54.541Z,44.00
2019-05-13T18:24:22.771Z,44.00
2019-05-13T18:26:52.128Z,44.60
2019-05-13T18:29:22.554Z,43.60
2019-05-13T18:31:52.412Z,45.40
2019-05-13T18:34:21.504Z,44.60
2019-05-13T18:36:51.601Z,44.80
2019-05-13T18:39:21.613Z,45.80
2019-05-13T18:41:49.992Z,45.50
2019-05-13T18:44:18.223Z,47.00
2019-05-13T18:46:46.450Z,46.10
2019-05-13T18:49:14.668Z,46.70
2019-05-13T18:51:42.906Z,47.10
2019-05-13T18:54:11.915Z,46.70
2019-05-13T18:56:41.633Z,47.60
2019-05-13T18:59:12.306Z,47.10
2019-05-13T19:01:40.145Z,47.60
2019-05-13T19:04:08.367Z,48.60
2019-05-13T19:06:36.604Z,49.20
2019-05-13T19:09:06.258Z,49.10
2019-05-13T19:11:34.516Z,49.70
2019-05-13T19:14:02.744Z,49.60
2019-05-13T19:16:31.958Z,50.20
2019-05-13T19:19:11.811Z,50.00
2019-05-13T19:21:31.136Z,51.50
2019-05-13T19:24:01.901Z,50.90
2019-05-13T19:26:29.608Z,50.90
2019-05-13T19:28:57.834Z,51.20
2019-05-13T19:31:26.071Z,51.60
2019-05-13T19:33:54.318Z,52.30
2019-05-13T19:36:22.522Z,51.40
2019-05-13T19:38:51.299Z,52.20
2019-05-13T19:41:22.082Z,52.20
2019-05-13T19:43:51.044Z,52.70
2019-05-13T19:46:19.461Z,53.00
2019-05-13T19:48:47.694Z,53.70
2019-05-13T19:51:15.899Z,52.70
2019-05-13T19:53:45.004Z,53.20
2019-05-13T19:56:13.698Z,53.90
2019-05-13T19:58:41.930Z,53.60
2019-05-13T20:01:11.678Z,53.00
2019-05-13T20:03:42.300Z,54.10
2019-05-13T20:06:12.151Z,53.70
2019-05-13T20:08:41.282Z,54.20
2019-05-13T20:11:11.466Z,55.90
2019-05-13T20:13:41.609Z,56.00
2019-05-13T20:16:11.543Z,54.60
2019-05-13T20:18:41.432Z,56.10
2019-05-13T20:21:11.150Z,56.10
2019-05-13T20:23:41.246Z,56.70
2019-05-13T20:26:09.286Z,56.20
2019-05-13T20:28:37.499Z,56.30
2019-05-13T20:31:05.706Z,56.40
2019-05-13T20:33:39.275Z,56.70
2019-05-13T20:36:03.874Z,56.80
2019-05-13T20:38:32.075Z,56.30
2019-05-13T20:41:01.329Z,56.50
2019-05-13T20:43:32.501Z,57.30
2019-05-13T20:46:02.004Z,57.50
2019-05-13T20:48:31.775Z,58.10
2019-05-13T20:51:02.269Z,58.50
2019-05-13T20:53:31.077Z,59.10
2019-05-13T20:56:01.495Z,62.20
2019-05-13T20:58:31.586Z,64.70
2019-05-13T21:00:59.294Z,64.90
2019-05-13T21:03:27.524Z,64.80
2019-05-13T21:05:55.731Z,65.60
2019-05-13T21:08:23.944Z,67.00
2019-05-13T21:10:52.146Z,69.00
2019-05-13T21:13:21.198Z,70.20
2019-05-13T21:15:51.696Z,69.40
2019-05-13T21:18:21.997Z,71.30
2019-05-13T21:20:49.601Z,72.00
2019-05-13T21:23:17.896Z,70.10
2019-05-13T21:25:46.109Z,71.50
2019-05-13T21:28:14.325Z,72.60
2019-05-13T21:30:42.554Z,72.80
2019-05-13T21:33:11.536Z,73.30
2019-05-13T21:35:41.870Z,73.30
2019-05-13T21:38:11.330Z,74.50
2019-05-13T21:40:41.600Z,75.10
2019-05-13T21:43:09.709Z,75.60
2019-05-13T21:45:37.952Z,75.10
2019-05-13T21:48:06.161Z,74.40
2019-05-13T21:50:37.418Z,77.20
2019-05-13T21:53:04.325Z,77.60
2019-05-13T21:55:32.836Z,78.70
2019-05-13T21:58:03.122Z,78.80
2019-05-13T22:00:32.613Z,79.50
2019-05-13T22:03:02.091Z,80.30
2019-05-13T22:05:31.431Z,80.50
2019-05-13T22:08:01.714Z,80.20
2019-05-13T22:10:31.122Z,80.90
2019-05-13T22:13:01.461Z,81.30
2019-05-13T22:15:29.402Z,79.80
2019-05-13T22:17:57.625Z,78.50
2019-05-13T22:20:25.848Z,78.50
2019-05-13T22:22:54.167Z,77.60
2019-05-13T22:25:22.352Z,79.90
2019-05-13T22:27:51.825Z,77.80
2019-05-13T22:30:20.336Z,76.30
2019-05-13T22:32:48.604Z,76.90
2019-05-13T22:35:16.797Z,75.30
2019-05-13T22:37:45.029Z,74.80
2019-05-13T22:40:13.251Z,76.10
2019-05-13T22:42:41.686Z,77.50
2019-05-13T22:45:11.682Z,78.50
2019-05-13T22:47:41.689Z,77.60
2019-05-13T22:50:11.452Z,77.70
2019-05-13T22:52:41.854Z,75.00
2019-05-13T22:55:11.516Z,76.40
2019-05-13T22:57:42.018Z,73.90
2019-05-13T23:00:11.932Z,73.20
2019-05-13T23:02:42.141Z,73.70
2019-05-13T23:05:11.286Z,73.80
2019-05-13T23:07:39.793Z,73.00
2019-05-13T23:10:08.039Z,73.80
2019-05-13T23:12:36.247Z,73.30
2019-05-13T23:15:06.358Z,74.20
2019-05-13T23:17:34.558Z,74.30
2019-05-13T23:20:03.380Z,75.70
2019-05-13T23:22:31.583Z,76.30
2019-05-13T23:25:01.584Z,75.30
2019-05-13T23:27:31.993Z,75.10
2019-05-13T23:30:01.227Z,75.70
2019-05-13T23:32:31.849Z,76.20
2019-05-13T23:35:01.784Z,76.20
2019-05-13T23:37:31.071Z,76.90
2019-05-13T23:40:01.427Z,76.70
2019-05-13T23:42:31.787Z,77.30
2019-05-13T23:44:59.352Z,76.60
2019-05-13T23:47:27.652Z,76.50
2019-05-13T23:49:56.010Z,76.30
2019-05-13T23:52:24.233Z,76.10
2019-05-13T23:54:52.458Z,76.70
2019-05-13T23:57:22.218Z,76.80
2019-05-13T23:59:51.199Z,76.40
